Terminal Aerodrome Forecast
Issued by NWS

Home | Current Version | Previous Version | Text Only | Print | Product List | Glossary On
Versions: 1 2 3 4 5 6 7 8 9 10 11 12
000
FTUS42 TJSJ 300559
TAFJPS
TAF
TJPS 300559Z 3006/3106 00000KT P6SM VCSH SCT030 BKN060
     FM301400 16009KT P6SM VCTS SCT022CB BKN040
     FM302330 VRB04KT P6SM VCSH SCT030 BKN060
      AMD NOT SKED 3012/3103=

USA.gov is the U.S. government's official web portal to all federal, state and local government web resources and services.